createdAt,value
2019-06-25T00:00:17.793Z,25.69
2019-06-25T00:01:17.813Z,25.56
2019-06-25T00:02:17.912Z,25.31
2019-06-25T00:03:17.844Z,25.30
2019-06-25T00:04:17.843Z,25.47
2019-06-25T00:05:17.891Z,25.53
2019-06-25T00:06:17.835Z,25.39
2019-06-25T00:07:17.834Z,25.47
2019-06-25T00:08:17.831Z,25.30
2019-06-25T00:09:17.845Z,25.32
2019-06-25T00:10:17.858Z,25.28
2019-06-25T00:11:17.843Z,25.22
2019-06-25T00:12:17.869Z,25.35
2019-06-25T00:13:17.888Z,25.28
2019-06-25T00:14:17.863Z,25.30
2019-06-25T00:15:17.864Z,25.30
2019-06-25T00:16:17.897Z,25.06
2019-06-25T00:17:17.909Z,25.07
2019-06-25T00:18:17.929Z,25.09
2019-06-25T00:19:17.896Z,25.06
2019-06-25T00:20:17.907Z,25.06
2019-06-25T00:21:17.894Z,25.10
2019-06-25T00:22:17.941Z,25.24
2019-06-25T00:23:17.951Z,25.28
2019-06-25T00:24:17.928Z,25.35
2019-06-25T00:25:17.979Z,25.38
2019-06-25T00:26:17.956Z,25.32
2019-06-25T00:27:17.919Z,25.25
2019-06-25T00:28:17.993Z,25.28
2019-06-25T00:29:17.958Z,25.17
2019-06-25T00:30:17.937Z,25.28
2019-06-25T00:31:17.990Z,25.32
2019-06-25T00:32:17.946Z,25.35
2019-06-25T00:33:17.948Z,25.20
2019-06-25T00:34:17.956Z,25.09
2019-06-25T00:35:17.983Z,25.24
2019-06-25T00:36:17.966Z,25.20
2019-06-25T00:37:17.996Z,25.20
2019-06-25T00:38:17.971Z,25.02
2019-06-25T00:39:17.986Z,24.95
2019-06-25T00:40:17.981Z,25.02
2019-06-25T00:41:18.000Z,24.98
2019-06-25T00:42:17.989Z,24.92
2019-06-25T00:43:17.985Z,25.07
2019-06-25T00:44:17.991Z,24.95
2019-06-25T00:45:17.994Z,25.06
2019-06-25T00:46:18.002Z,24.92
2019-06-25T00:47:18.001Z,24.91
2019-06-25T00:48:18.025Z,24.94
2019-06-25T00:49:18.058Z,24.92
2019-06-25T00:50:18.020Z,24.95
2019-06-25T00:51:18.031Z,24.97
2019-06-25T00:52:18.026Z,24.95
2019-06-25T00:53:18.032Z,24.80
2019-06-25T00:54:18.045Z,24.90
2019-06-25T00:55:18.057Z,24.85
2019-06-25T00:56:18.041Z,24.95
2019-06-25T00:57:18.068Z,25.01
2019-06-25T00:58:18.085Z,25.09
2019-06-25T00:59:18.086Z,25.10
2019-06-25T01:00:18.075Z,24.97
2019-06-25T01:01:18.089Z,24.97
2019-06-25T01:02:18.128Z,25.09
2019-06-25T01:03:18.133Z,24.90
2019-06-25T01:04:18.099Z,24.90
2019-06-25T01:05:18.116Z,24.85
2019-06-25T01:06:18.100Z,24.87
2019-06-25T01:07:18.128Z,24.95
2019-06-25T01:08:18.095Z,24.95
2019-06-25T01:09:18.117Z,24.90
2019-06-25T01:10:18.110Z,25.00
2019-06-25T01:11:18.128Z,24.92
2019-06-25T01:12:26.794Z,24.76
2019-06-25T01:14:22.690Z,24.85
2019-06-25T01:15:22.613Z,24.68
2019-06-25T01:16:22.655Z,24.88
2019-06-25T01:17:22.639Z,24.77
2019-06-25T01:18:22.628Z,24.87
2019-06-25T01:19:22.626Z,24.85
2019-06-25T01:20:22.641Z,24.76
2019-06-25T01:21:22.635Z,24.77
2019-06-25T01:22:22.642Z,24.79
2019-06-25T01:23:22.633Z,24.85
2019-06-25T01:24:22.677Z,24.80
2019-06-25T01:25:22.646Z,24.82
2019-06-25T01:26:22.670Z,24.80
2019-06-25T01:27:22.670Z,24.80
2019-06-25T01:28:22.663Z,24.79
2019-06-25T01:29:22.687Z,24.77
2019-06-25T01:30:29.246Z,24.80
2019-06-25T01:31:22.693Z,24.71
2019-06-25T01:32:22.695Z,24.63
2019-06-25T01:33:22.690Z,24.59
2019-06-25T01:34:22.688Z,24.75
2019-06-25T01:35:22.695Z,24.85
2019-06-25T01:36:22.713Z,24.83
2019-06-25T01:37:22.701Z,24.88
2019-06-25T01:38:22.700Z,24.69
2019-06-25T01:39:22.721Z,24.75
2019-06-25T01:40:22.711Z,24.76
2019-06-25T01:41:22.722Z,24.69
2019-06-25T01:42:22.715Z,24.71
2019-06-25T01:43:22.740Z,24.61
2019-06-25T01:44:22.770Z,24.69
2019-06-25T01:45:22.734Z,24.64
2019-06-25T01:46:22.739Z,24.64
2019-06-25T01:47:22.772Z,24.80
2019-06-25T01:48:22.769Z,24.77
2019-06-25T01:49:22.751Z,24.75
2019-06-25T01:50:22.758Z,24.68
2019-06-25T01:51:22.755Z,24.80
2019-06-25T01:52:22.776Z,24.80
2019-06-25T01:53:22.760Z,24.64
2019-06-25T01:54:22.768Z,24.44
2019-06-25T01:55:22.787Z,24.63
2019-06-25T01:56:22.781Z,24.64
2019-06-25T01:57:22.786Z,24.68
2019-06-25T01:58:22.787Z,24.77
2019-06-25T01:59:22.787Z,24.80
2019-06-25T02:00:22.840Z,24.75
2019-06-25T02:01:22.815Z,24.79
2019-06-25T02:02:22.811Z,24.82
2019-06-25T02:03:22.811Z,24.69
2019-06-25T02:04:22.818Z,24.44
2019-06-25T02:05:22.821Z,24.41
2019-06-25T02:06:22.825Z,24.49
2019-06-25T02:07:22.842Z,24.59
2019-06-25T02:08:31.500Z,24.54
2019-06-25T02:10:25.320Z,24.41
2019-06-25T02:11:24.966Z,24.47
2019-06-25T02:14:52.921Z,24.20
2019-06-25T02:15:49.352Z,24.38
2019-06-25T02:16:49.365Z,24.42
2019-06-25T02:17:49.434Z,24.41
2019-06-25T02:18:49.366Z,24.52
2019-06-25T02:19:49.362Z,24.44
2019-06-25T02:20:49.441Z,24.52
2019-06-25T02:21:49.376Z,24.41
2019-06-25T02:22:49.389Z,24.27
2019-06-25T02:23:49.373Z,24.22
2019-06-25T02:24:49.416Z,24.26
2019-06-25T02:25:49.376Z,24.20
2019-06-25T02:26:49.395Z,24.19
2019-06-25T02:27:58.057Z,24.22
2019-06-25T02:29:42.881Z,24.29
2019-06-25T02:30:42.831Z,24.13
2019-06-25T02:32:47.544Z,24.22
2019-06-25T02:33:56.009Z,24.22
2019-06-25T02:37:31.262Z,24.32
2019-06-25T02:38:31.255Z,24.13
2019-06-25T02:39:31.255Z,24.19
2019-06-25T02:40:31.256Z,24.24
2019-06-25T02:41:31.256Z,24.19
2019-06-25T02:42:33.459Z,24.14
2019-06-25T02:43:31.256Z,24.23
2019-06-25T02:44:31.256Z,24.14
2019-06-25T02:45:31.271Z,24.22
2019-06-25T02:46:31.263Z,24.19
2019-06-25T02:47:31.281Z,24.01
2019-06-25T02:48:31.273Z,24.14
2019-06-25T02:49:31.273Z,24.20
2019-06-25T02:50:31.296Z,24.17
2019-06-25T02:51:31.283Z,24.19
2019-06-25T02:52:31.294Z,24.22
2019-06-25T02:53:31.297Z,24.23
2019-06-25T02:54:31.344Z,24.16
2019-06-25T02:55:31.309Z,24.32
2019-06-25T02:56:31.334Z,24.14
2019-06-25T02:57:31.354Z,24.00
2019-06-25T02:58:31.345Z,24.08
2019-06-25T02:59:31.332Z,24.16
2019-06-25T03:00:31.326Z,24.16
2019-06-25T03:01:31.337Z,24.14
2019-06-25T03:02:31.352Z,24.07
2019-06-25T03:03:31.358Z,24.05
2019-06-25T03:04:31.381Z,24.01
2019-06-25T03:05:31.385Z,24.05
2019-06-25T03:06:31.345Z,23.97
2019-06-25T03:07:31.364Z,24.07
2019-06-25T03:08:31.343Z,24.08
2019-06-25T03:09:31.390Z,24.12
2019-06-25T03:10:31.363Z,24.13
2019-06-25T03:11:31.379Z,24.10
2019-06-25T03:12:31.382Z,24.12
2019-06-25T03:13:31.364Z,24.07
2019-06-25T03:14:31.366Z,24.07
2019-06-25T03:15:31.388Z,24.13
2019-06-25T03:16:31.391Z,24.07
2019-06-25T03:17:31.376Z,24.01
2019-06-25T03:18:31.378Z,24.14
2019-06-25T03:19:31.442Z,23.98
2019-06-25T03:20:31.445Z,23.97
2019-06-25T03:21:31.436Z,24.01
2019-06-25T03:22:31.405Z,24.13
2019-06-25T03:23:31.409Z,24.08
2019-06-25T03:24:40.064Z,24.17
2019-06-25T03:26:35.939Z,24.01
2019-06-25T03:27:44.557Z,24.05
2019-06-25T03:29:33.450Z,24.10
2019-06-25T03:30:29.313Z,24.14
2019-06-25T03:32:01.321Z,24.22
2019-06-25T03:32:29.331Z,24.13
2019-06-25T03:33:29.340Z,24.12
2019-06-25T03:34:29.382Z,24.10
2019-06-25T03:35:29.341Z,23.97
2019-06-25T03:36:29.335Z,24.07
2019-06-25T03:37:29.345Z,23.97
2019-06-25T03:38:29.337Z,23.98
2019-06-25T03:39:29.345Z,23.90
2019-06-25T03:40:29.367Z,23.77
2019-06-25T03:41:29.368Z,23.94
2019-06-25T03:42:29.353Z,24.01
2019-06-25T03:43:29.356Z,24.13
2019-06-25T03:44:29.365Z,24.05
2019-06-25T03:45:29.399Z,24.12
2019-06-25T03:46:29.378Z,24.08
2019-06-25T03:47:29.504Z,24.16
2019-06-25T03:48:29.381Z,23.98
2019-06-25T03:49:29.407Z,24.02
2019-06-25T03:50:29.383Z,24.07
2019-06-25T03:51:31.563Z,24.08
2019-06-25T03:52:29.391Z,24.10
2019-06-25T03:53:29.410Z,23.97
2019-06-25T03:54:29.418Z,24.07
2019-06-25T03:55:29.441Z,24.10
2019-06-25T03:56:29.419Z,24.13
2019-06-25T03:57:29.433Z,24.24
2019-06-25T03:58:29.415Z,24.17
2019-06-25T03:59:31.236Z,24.14
2019-06-25T04:00:29.437Z,24.16
2019-06-25T04:01:29.450Z,24.10
2019-06-25T04:02:29.430Z,24.02
2019-06-25T04:03:29.466Z,24.08
2019-06-25T04:04:29.451Z,24.10
2019-06-25T04:05:29.442Z,24.19
2019-06-25T04:06:29.497Z,24.17
2019-06-25T04:07:29.497Z,24.13
2019-06-25T04:24:44.774Z,24.39
2019-06-25T04:25:44.768Z,24.44
2019-06-25T04:26:44.779Z,24.53
2019-06-25T04:27:44.747Z,24.57
2019-06-25T04:28:44.743Z,24.56
2019-06-25T04:29:44.763Z,24.53
2019-06-25T04:30:46.924Z,24.49
2019-06-25T04:31:44.762Z,24.50
2019-06-25T04:32:44.873Z,24.63
2019-06-25T04:33:44.771Z,24.67
2019-06-25T04:34:44.759Z,24.63
2019-06-25T04:35:44.865Z,24.64
2019-06-25T04:36:44.951Z,24.79
2019-06-25T04:37:44.856Z,24.80
2019-06-25T04:38:44.834Z,24.77
2019-06-25T04:39:44.847Z,24.87
2019-06-25T04:40:44.867Z,24.94
2019-06-25T04:41:44.853Z,24.98
2019-06-25T04:42:44.840Z,25.05
2019-06-25T04:43:44.867Z,25.07
2019-06-25T04:44:44.866Z,25.25
2019-06-25T04:45:44.892Z,25.38
2019-06-25T04:46:44.935Z,25.54
2019-06-25T04:47:44.872Z,25.86
2019-06-25T04:48:44.882Z,26.31
2019-06-25T04:49:44.891Z,26.61
2019-06-25T04:50:44.871Z,26.65
2019-06-25T04:51:44.927Z,26.72
2019-06-25T04:52:44.896Z,26.37
2019-06-25T04:53:44.916Z,26.27
2019-06-25T04:54:44.886Z,26.01
2019-06-25T04:55:44.887Z,25.91
2019-06-25T04:56:44.935Z,25.68
2019-06-25T04:57:44.922Z,25.86
2019-06-25T04:58:44.920Z,25.68
2019-06-25T04:59:44.934Z,25.68
2019-06-25T05:00:44.934Z,25.77
2019-06-25T05:01:44.936Z,25.84
2019-06-25T05:02:49.969Z,26.15
2019-06-25T05:03:44.942Z,26.47
2019-06-25T05:04:44.950Z,26.62
2019-06-25T05:05:44.963Z,26.35
2019-06-25T05:06:45.051Z,26.29
2019-06-25T05:07:45.017Z,26.49
2019-06-25T05:08:44.988Z,26.37
2019-06-25T05:09:45.006Z,26.36
2019-06-25T05:10:45.016Z,26.55
2019-06-25T05:11:45.009Z,26.58
2019-06-25T05:12:45.042Z,26.35
2019-06-25T05:13:45.023Z,26.32
2019-06-25T05:14:53.713Z,26.37
2019-06-25T05:16:59.561Z,26.40
2019-06-25T05:17:58.236Z,26.50
2019-06-25T05:19:42.995Z,26.68
2019-06-25T05:20:43.010Z,26.65
2019-06-25T05:21:43.024Z,26.99
2019-06-25T05:22:43.036Z,27.35
2019-06-25T05:23:43.025Z,27.77
2019-06-25T05:24:43.036Z,27.99
2019-06-25T05:25:43.103Z,28.25
2019-06-25T05:26:43.047Z,28.56
2019-06-25T05:27:43.057Z,28.77
2019-06-25T05:28:43.071Z,29.00
2019-06-25T05:29:43.087Z,29.44
2019-06-25T05:30:51.765Z,29.31
2019-06-25T05:33:05.463Z,28.60
2019-06-25T05:34:08.586Z,28.23
2019-06-25T05:36:13.417Z,27.98
2019-06-25T05:37:12.084Z,27.80
2019-06-25T05:39:07.984Z,27.38
2019-06-25T05:40:17.642Z,27.57
2019-06-25T05:42:12.490Z,27.53
2019-06-25T05:43:12.458Z,27.64
2019-06-25T05:44:12.464Z,27.59
2019-06-25T05:45:12.513Z,27.51
2019-06-25T05:46:12.487Z,27.21
2019-06-25T05:47:12.499Z,27.20
2019-06-25T05:48:12.501Z,27.10
2019-06-25T05:49:12.533Z,27.06
2019-06-25T05:50:12.559Z,26.99
2019-06-25T05:51:12.538Z,27.06
2019-06-25T05:52:12.555Z,27.99
2019-06-25T05:53:12.540Z,29.20
2019-06-25T05:54:12.562Z,30.38
2019-06-25T05:55:12.558Z,31.50
2019-06-25T05:56:12.581Z,32.51
2019-06-25T05:57:12.595Z,32.99
2019-06-25T05:58:12.597Z,32.96
2019-06-25T05:59:22.269Z,32.62
2019-06-25T06:01:17.125Z,32.67
2019-06-25T06:02:17.173Z,32.77
2019-06-25T06:03:20.569Z,32.77
2019-06-25T06:04:17.182Z,32.66
2019-06-25T06:05:17.148Z,32.71
2019-06-25T06:06:17.163Z,32.85
2019-06-25T06:07:17.171Z,33.30
2019-06-25T06:08:17.176Z,33.65
2019-06-25T06:09:17.189Z,33.92
2019-06-25T06:10:17.234Z,33.98
2019-06-25T06:11:17.478Z,34.09
2019-06-25T06:12:17.236Z,33.97
2019-06-25T06:13:17.235Z,33.82
2019-06-25T06:14:17.245Z,33.46
2019-06-25T06:15:17.273Z,33.07
2019-06-25T06:16:17.266Z,32.35
2019-06-25T06:17:17.294Z,31.33
2019-06-25T06:18:17.323Z,30.43
2019-06-25T06:19:17.309Z,29.87
2019-06-25T06:20:17.321Z,29.15
2019-06-25T06:21:17.343Z,28.88
2019-06-25T06:22:17.325Z,28.58
2019-06-25T06:23:17.363Z,28.66
2019-06-25T06:24:17.350Z,28.80
2019-06-25T06:25:26.024Z,28.70
2019-06-25T06:27:31.872Z,28.53
2019-06-25T06:28:21.907Z,28.56
2019-06-25T06:29:21.908Z,28.50
2019-06-25T06:30:21.948Z,28.68
2019-06-25T06:31:21.946Z,28.62
2019-06-25T06:32:21.936Z,28.58
2019-06-25T06:33:35.619Z,28.56
2019-06-25T06:34:21.951Z,28.33
2019-06-25T06:35:21.957Z,28.07
2019-06-25T06:36:21.971Z,28.25
2019-06-25T06:37:22.013Z,27.96
2019-06-25T06:38:22.000Z,27.99
2019-06-25T06:39:22.002Z,27.70
2019-06-25T06:40:22.093Z,27.66
2019-06-25T06:41:22.019Z,27.62
2019-06-25T06:42:22.022Z,27.53
2019-06-25T06:43:22.048Z,27.82
2019-06-25T06:44:22.053Z,27.77
2019-06-25T06:45:22.074Z,27.71
2019-06-25T06:46:22.072Z,27.71
2019-06-25T06:47:22.080Z,27.67
2019-06-25T06:48:22.101Z,27.98
2019-06-25T06:49:22.091Z,27.98
2019-06-25T06:50:22.109Z,27.99
2019-06-25T06:51:22.107Z,27.94
2019-06-25T06:52:22.128Z,27.94
2019-06-25T06:53:22.123Z,27.67
2019-06-25T06:54:22.141Z,27.53
2019-06-25T06:55:22.141Z,27.80
2019-06-25T06:56:22.149Z,27.74
2019-06-25T06:57:22.252Z,27.89
2019-06-25T06:58:22.173Z,27.71
2019-06-25T06:59:22.174Z,27.73
2019-06-25T07:00:22.178Z,27.77
2019-06-25T07:01:22.194Z,27.71
2019-06-25T07:02:22.207Z,27.73
2019-06-25T07:03:22.210Z,27.73
2019-06-25T07:04:22.215Z,27.80
2019-06-25T07:05:22.366Z,27.76
2019-06-25T07:06:22.239Z,27.69
2019-06-25T07:07:22.249Z,27.74
2019-06-25T07:08:22.257Z,27.79
2019-06-25T07:09:22.261Z,27.69
2019-06-25T07:10:22.297Z,27.70
2019-06-25T07:11:22.280Z,27.64
2019-06-25T07:12:22.288Z,27.76
2019-06-25T07:13:22.298Z,27.62
2019-06-25T07:14:22.302Z,27.67
2019-06-25T07:15:22.317Z,27.59
2019-06-25T07:16:22.319Z,27.39
2019-06-25T07:17:22.326Z,27.48
2019-06-25T07:18:22.334Z,27.38
2019-06-25T07:19:22.366Z,27.41
2019-06-25T07:20:32.988Z,27.38
2019-06-25T07:21:22.371Z,27.19
2019-06-25T07:22:22.369Z,27.21
2019-06-25T07:23:22.374Z,27.31
2019-06-25T07:24:22.396Z,27.31
2019-06-25T07:25:22.390Z,27.46
2019-06-25T07:26:22.403Z,27.39
2019-06-25T07:27:22.418Z,27.53
2019-06-25T07:28:22.425Z,27.62
2019-06-25T07:29:22.435Z,27.53
2019-06-25T07:30:22.434Z,27.53
2019-06-25T07:31:22.444Z,27.58
2019-06-25T07:32:22.473Z,27.54
2019-06-25T07:33:22.458Z,27.41
2019-06-25T07:34:22.470Z,27.38
2019-06-25T07:35:22.476Z,27.39
2019-06-25T07:36:31.137Z,27.43
2019-06-25T07:38:27.081Z,27.54
2019-06-25T07:39:27.067Z,27.54
2019-06-25T07:40:27.090Z,27.62
2019-06-25T07:41:27.106Z,27.64
2019-06-25T07:42:27.089Z,27.64
2019-06-25T07:43:27.136Z,27.54
2019-06-25T07:44:27.123Z,27.67
2019-06-25T07:45:27.140Z,27.69
2019-06-25T07:46:27.130Z,27.54
2019-06-25T07:47:27.135Z,27.70
2019-06-25T07:48:27.144Z,27.70
2019-06-25T07:49:27.164Z,27.70
2019-06-25T07:50:27.219Z,27.50
2019-06-25T07:51:27.157Z,27.54
2019-06-25T07:52:27.167Z,27.42
2019-06-25T07:53:27.186Z,27.36
2019-06-25T07:54:27.180Z,27.41
2019-06-25T07:55:27.227Z,27.51
2019-06-25T07:56:36.544Z,27.42
2019-06-25T07:57:27.214Z,27.36
2019-06-25T07:58:27.215Z,27.39
2019-06-25T07:59:27.219Z,27.41
2019-06-25T08:00:27.268Z,27.47
2019-06-25T08:01:27.280Z,27.39
2019-06-25T08:02:27.327Z,27.41
2019-06-25T08:03:28.935Z,27.33
2019-06-25T08:04:27.258Z,27.38
2019-06-25T08:05:27.285Z,27.41
2019-06-25T08:06:27.284Z,27.57
2019-06-25T08:07:27.281Z,27.48
2019-06-25T08:08:27.287Z,27.43
2019-06-25T08:09:27.296Z,27.41
2019-06-25T08:10:27.309Z,27.39
2019-06-25T08:11:27.308Z,27.53
2019-06-25T08:12:27.318Z,27.64
2019-06-25T08:13:27.471Z,27.57
2019-06-25T08:14:27.331Z,27.50
2019-06-25T08:15:27.337Z,27.59
2019-06-25T08:16:27.368Z,27.61
2019-06-25T08:17:27.394Z,27.66
2019-06-25T08:18:27.401Z,27.71
2019-06-25T08:19:35.054Z,27.70
2019-06-25T08:21:21.037Z,27.51
2019-06-25T08:22:29.670Z,27.50
2019-06-25T08:24:25.510Z,27.62
2019-06-25T08:25:25.511Z,27.61
2019-06-25T08:26:25.518Z,27.59
2019-06-25T08:27:25.530Z,27.58
2019-06-25T08:28:25.529Z,27.51
2019-06-25T08:29:25.534Z,27.64
2019-06-25T08:30:25.544Z,27.70
2019-06-25T08:31:25.552Z,27.73
2019-06-25T08:32:25.936Z,27.84
2019-06-25T08:33:25.570Z,27.79
2019-06-25T08:34:41.701Z,27.69
2019-06-25T08:36:40.089Z,27.92
2019-06-25T08:37:30.098Z,27.92
2019-06-25T08:38:30.092Z,27.79
2019-06-25T08:39:30.096Z,27.74
2019-06-25T08:40:30.103Z,27.71
2019-06-25T08:41:38.770Z,27.61
2019-06-25T08:43:43.652Z,27.57
2019-06-25T08:44:43.287Z,27.59
2019-06-25T08:46:39.148Z,27.70
2019-06-25T08:47:39.131Z,27.70
2019-06-25T08:48:39.136Z,27.73
2019-06-25T08:49:39.163Z,27.67
2019-06-25T08:50:39.163Z,27.88
2019-06-25T08:51:39.174Z,27.96
2019-06-25T08:52:39.176Z,27.82
2019-06-25T08:53:39.180Z,27.89
2019-06-25T08:54:39.223Z,27.98
2019-06-25T08:55:39.203Z,27.96
2019-06-25T08:56:39.209Z,27.96
2019-06-25T08:57:39.207Z,27.99
2019-06-25T08:58:39.221Z,27.99
2019-06-25T08:59:39.228Z,27.94
2019-06-25T09:00:39.234Z,27.73
2019-06-25T09:01:39.239Z,27.70
2019-06-25T09:02:39.245Z,27.86
2019-06-25T09:03:39.253Z,27.89
2019-06-25T09:04:39.279Z,27.98
2019-06-25T09:05:39.267Z,28.06
2019-06-25T09:06:39.277Z,27.98
2019-06-25T09:07:39.289Z,27.98
2019-06-25T09:08:39.286Z,28.01
2019-06-25T09:09:39.308Z,27.99
2019-06-25T09:10:39.311Z,27.96
2019-06-25T09:11:39.881Z,28.11
2019-06-25T09:12:39.327Z,28.07
2019-06-25T09:13:39.337Z,28.03
2019-06-25T09:14:39.348Z,28.07
2019-06-25T09:15:39.393Z,28.03
2019-06-25T09:16:39.355Z,28.16
2019-06-25T09:17:39.363Z,28.14
2019-06-25T09:18:39.362Z,28.17
2019-06-25T09:19:49.804Z,28.06
2019-06-25T09:20:39.384Z,27.96
2019-06-25T09:21:39.387Z,27.98
2019-06-25T09:22:39.406Z,28.03
2019-06-25T09:23:39.408Z,28.07
2019-06-25T09:24:39.413Z,28.13
2019-06-25T09:25:39.429Z,28.06
2019-06-25T09:26:39.436Z,28.11
2019-06-25T09:27:39.446Z,28.26
2019-06-25T09:28:39.487Z,28.35
2019-06-25T09:29:39.447Z,28.40
2019-06-25T09:30:39.484Z,28.23
2019-06-25T09:31:39.525Z,28.23
2019-06-25T09:32:39.474Z,28.40
2019-06-25T09:33:39.554Z,28.35
2019-06-25T09:34:39.526Z,28.25
2019-06-25T09:35:39.495Z,28.25
2019-06-25T09:36:39.512Z,28.29
2019-06-25T09:37:48.183Z,28.35
2019-06-25T09:39:42.093Z,28.35
2019-06-25T09:40:33.198Z,28.46
2019-06-25T09:41:32.989Z,28.53
2019-06-25T09:42:41.717Z,28.44
2019-06-25T09:44:46.493Z,28.41
2019-06-25T09:45:37.506Z,28.36
2019-06-25T09:46:37.513Z,28.53
2019-06-25T09:47:40.138Z,28.58
2019-06-25T09:48:37.534Z,28.58
2019-06-25T09:49:37.567Z,28.54
2019-06-25T09:50:37.556Z,28.54
2019-06-25T09:51:37.551Z,28.43
2019-06-25T09:52:37.559Z,28.44
2019-06-25T09:53:37.567Z,28.41
2019-06-25T09:54:37.603Z,28.33
2019-06-25T09:55:37.585Z,28.40
2019-06-25T09:56:37.595Z,28.50
2019-06-25T09:57:37.616Z,28.54
2019-06-25T09:58:37.609Z,28.66
2019-06-25T09:59:37.606Z,28.59
2019-06-25T10:00:37.626Z,28.58
2019-06-25T10:01:45.145Z,28.58
2019-06-25T10:02:37.633Z,28.75
2019-06-25T10:03:37.646Z,28.73
2019-06-25T10:04:37.662Z,28.80
2019-06-25T10:05:37.672Z,28.87
2019-06-25T10:06:37.670Z,28.87
2019-06-25T10:07:37.679Z,28.84
2019-06-25T10:08:37.696Z,28.80
2019-06-25T10:09:37.695Z,28.87
2019-06-25T10:10:37.708Z,28.97
2019-06-25T10:11:39.117Z,28.90
2019-06-25T10:12:37.714Z,28.88
2019-06-25T10:13:37.722Z,28.84
2019-06-25T10:14:37.734Z,29.06
2019-06-25T10:15:37.740Z,28.93
2019-06-25T10:16:37.756Z,28.96
2019-06-25T10:17:37.786Z,29.07
2019-06-25T10:18:44.350Z,29.04
2019-06-25T10:19:37.822Z,29.07
2019-06-25T10:20:37.788Z,29.06
2019-06-25T10:21:37.824Z,29.10
2019-06-25T10:22:37.803Z,29.18
2019-06-25T10:23:37.802Z,29.13
2019-06-25T10:24:37.816Z,29.13
2019-06-25T10:25:37.818Z,29.08
2019-06-25T10:26:37.840Z,29.07
2019-06-25T10:27:37.863Z,29.06
2019-06-25T10:28:39.589Z,29.06
2019-06-25T10:29:37.860Z,29.08
2019-06-25T10:30:37.908Z,29.04
2019-06-25T10:31:37.883Z,29.03
2019-06-25T10:32:37.891Z,28.97
2019-06-25T10:33:37.907Z,29.07
2019-06-25T10:34:37.909Z,29.25
2019-06-25T10:35:46.864Z,29.37
2019-06-25T10:36:37.919Z,29.37
2019-06-25T10:37:37.918Z,29.33
2019-06-25T10:38:37.969Z,29.28
2019-06-25T10:39:37.966Z,29.16
2019-06-25T10:40:46.591Z,29.13
2019-06-25T10:42:42.913Z,29.23
2019-06-25T10:43:44.887Z,29.38
2019-06-25T10:44:42.883Z,29.50
2019-06-25T10:45:42.867Z,29.56
2019-06-25T10:46:42.903Z,29.66
2019-06-25T10:47:42.924Z,29.63
2019-06-25T10:48:42.920Z,29.63
2019-06-25T10:49:42.909Z,29.74
2019-06-25T10:50:42.957Z,29.79
2019-06-25T10:51:42.998Z,29.90
2019-06-25T10:52:42.948Z,29.84
2019-06-25T10:53:42.928Z,29.63
2019-06-25T10:54:42.940Z,29.62
2019-06-25T10:55:42.955Z,29.62
2019-06-25T10:56:42.965Z,29.65
2019-06-25T10:57:42.968Z,29.70
2019-06-25T10:58:43.035Z,29.75
2019-06-25T10:59:43.002Z,29.72
2019-06-25T11:00:43.046Z,29.77
2019-06-25T11:01:43.037Z,29.81
2019-06-25T11:02:43.010Z,29.79
2019-06-25T11:03:43.101Z,29.75
2019-06-25T11:04:43.026Z,29.86
2019-06-25T11:05:43.205Z,29.97
2019-06-25T11:06:56.430Z,29.87
2019-06-25T11:07:43.058Z,29.89
2019-06-25T11:08:43.080Z,29.89
2019-06-25T11:09:43.087Z,29.86
2019-06-25T11:10:43.079Z,29.87
2019-06-25T11:11:43.110Z,29.86
2019-06-25T11:12:43.093Z,30.08
2019-06-25T11:13:43.109Z,30.07
2019-06-25T11:14:43.114Z,29.86
2019-06-25T11:15:43.126Z,29.90
2019-06-25T11:16:43.230Z,30.08
2019-06-25T11:17:43.517Z,30.07
2019-06-25T11:18:43.165Z,30.11
2019-06-25T11:19:43.171Z,29.99
2019-06-25T11:20:43.167Z,29.96
2019-06-25T11:21:43.203Z,30.07
2019-06-25T11:22:43.230Z,30.12
2019-06-25T11:23:43.204Z,30.18
2019-06-25T11:24:43.213Z,30.07
2019-06-25T11:25:56.706Z,29.96
2019-06-25T11:26:43.222Z,29.89
2019-06-25T11:27:43.250Z,30.07
2019-06-25T11:28:43.248Z,30.08
2019-06-25T11:29:43.271Z,30.36
2019-06-25T11:30:43.277Z,30.49
2019-06-25T11:31:43.268Z,30.52
2019-06-25T11:32:43.327Z,30.37
2019-06-25T11:33:43.278Z,30.47
2019-06-25T11:34:43.336Z,30.46
2019-06-25T11:35:43.301Z,30.46
2019-06-25T11:36:43.327Z,30.45
2019-06-25T11:37:43.343Z,30.52
2019-06-25T11:38:43.331Z,30.21
2019-06-25T11:39:43.370Z,30.24
2019-06-25T11:40:51.987Z,30.30
2019-06-25T11:42:57.367Z,30.50
2019-06-25T11:43:56.521Z,30.64
2019-06-25T11:45:52.382Z,30.69
2019-06-25T11:47:02.037Z,30.65
2019-06-25T11:49:06.875Z,30.65
2019-06-25T11:50:05.514Z,30.67
2019-06-25T11:52:01.381Z,30.64
2019-06-25T11:53:01.396Z,30.78
2019-06-25T11:54:01.433Z,30.69
2019-06-25T11:55:01.502Z,30.53
2019-06-25T11:56:01.430Z,30.49
2019-06-25T11:57:01.422Z,30.49
2019-06-25T11:58:01.423Z,30.49
2019-06-25T11:59:01.446Z,30.50
2019-06-25T12:00:01.496Z,30.40
2019-06-25T12:01:01.458Z,30.50
2019-06-25T12:02:01.484Z,30.59
2019-06-25T12:03:01.582Z,30.75
2019-06-25T12:04:01.481Z,30.64
2019-06-25T12:05:01.521Z,30.61
2019-06-25T12:06:01.704Z,30.78
2019-06-25T12:07:01.519Z,30.76
2019-06-25T12:08:01.547Z,30.86
2019-06-25T12:09:03.919Z,30.76
2019-06-25T12:10:01.539Z,30.76
2019-06-25T12:11:01.550Z,30.90
2019-06-25T12:12:01.559Z,30.71
2019-06-25T12:13:01.598Z,30.87
2019-06-25T12:14:01.577Z,30.91
2019-06-25T12:15:01.597Z,30.91
2019-06-25T12:16:01.605Z,30.94
2019-06-25T12:17:01.611Z,30.94
2019-06-25T12:18:01.615Z,31.04
2019-06-25T12:19:01.620Z,31.06
2019-06-25T12:20:01.669Z,30.90
2019-06-25T12:21:01.641Z,30.81
2019-06-25T12:22:01.653Z,30.91
2019-06-25T12:23:01.666Z,30.98
2019-06-25T12:24:01.677Z,30.99
2019-06-25T12:25:01.679Z,31.12
2019-06-25T12:26:01.691Z,31.04
2019-06-25T12:27:01.700Z,31.18
2019-06-25T12:28:01.743Z,31.26
2019-06-25T12:29:01.741Z,31.28
2019-06-25T12:30:01.774Z,31.36
2019-06-25T12:31:01.743Z,31.12
2019-06-25T12:32:01.754Z,31.09
2019-06-25T12:33:01.751Z,31.26
2019-06-25T12:34:01.773Z,31.26
2019-06-25T12:35:01.917Z,31.24
2019-06-25T12:36:01.786Z,31.20
2019-06-25T12:37:09.644Z,31.28
2019-06-25T12:38:01.861Z,31.21
2019-06-25T12:39:01.936Z,31.12
2019-06-25T12:40:01.935Z,31.17
2019-06-25T12:41:01.898Z,31.36
2019-06-25T12:42:02.123Z,31.55
2019-06-25T12:43:01.846Z,31.39
2019-06-25T12:44:01.862Z,31.46
2019-06-25T12:45:01.897Z,31.49
2019-06-25T12:46:01.903Z,31.40
2019-06-25T12:47:03.079Z,31.39
2019-06-25T12:48:01.923Z,31.42
2019-06-25T12:49:01.915Z,31.38
2019-06-25T12:50:02.067Z,31.50
2019-06-25T12:51:01.936Z,31.54
2019-06-25T12:52:01.970Z,31.54
2019-06-25T12:53:01.968Z,31.72
2019-06-25T12:54:01.991Z,31.60
2019-06-25T12:55:02.012Z,31.54
2019-06-25T12:56:02.017Z,31.57
2019-06-25T12:57:02.004Z,31.58
2019-06-25T12:58:02.024Z,31.64
2019-06-25T12:59:02.083Z,31.70
2019-06-25T13:00:02.027Z,31.68
2019-06-25T13:01:02.023Z,31.61
2019-06-25T13:02:02.075Z,31.61
2019-06-25T13:03:02.044Z,31.65
2019-06-25T13:04:02.078Z,31.70
2019-06-25T13:05:02.109Z,31.77
2019-06-25T13:06:02.085Z,31.79
2019-06-25T13:07:02.105Z,31.84
2019-06-25T13:08:02.102Z,31.95
2019-06-25T13:09:02.113Z,31.99
2019-06-25T13:10:02.134Z,31.95
2019-06-25T13:11:02.124Z,31.92
2019-06-25T13:12:02.159Z,31.77
2019-06-25T13:13:02.147Z,31.79
2019-06-25T13:14:02.149Z,31.84
2019-06-25T13:15:02.243Z,31.92
2019-06-25T13:16:02.201Z,31.82
2019-06-25T13:17:02.184Z,31.76
2019-06-25T13:18:02.236Z,31.84
2019-06-25T13:19:02.266Z,31.87
2019-06-25T13:20:02.213Z,31.93
2019-06-25T13:21:02.247Z,31.80
2019-06-25T13:22:02.261Z,31.93
2019-06-25T13:23:02.242Z,32.06
2019-06-25T13:24:02.280Z,32.07
2019-06-25T13:25:02.275Z,32.06
2019-06-25T13:26:02.286Z,32.00
2019-06-25T13:27:02.276Z,31.95
2019-06-25T13:28:02.443Z,31.88
2019-06-25T13:29:02.309Z,31.91
2019-06-25T13:30:02.658Z,31.88
2019-06-25T13:31:02.343Z,32.03
2019-06-25T13:32:02.370Z,32.11
2019-06-25T13:33:02.337Z,32.18
2019-06-25T13:34:02.427Z,32.05
2019-06-25T13:35:02.428Z,32.00
2019-06-25T13:36:02.383Z,32.00
2019-06-25T13:37:02.396Z,32.00
2019-06-25T13:38:02.397Z,32.07
2019-06-25T13:39:02.422Z,32.18
2019-06-25T13:40:02.404Z,32.27
2019-06-25T13:41:02.417Z,32.35
2019-06-25T13:42:05.159Z,32.44